Time;durP1;ratioP1;P1;durP2;ratioP2;P2;SDS_P1;SDS_P2;PMS_P1;PMS_P2;Temp;Humidity;BMP_temperature;BMP_pressure;BME280_temperature;BME280_humidity;BME280_pressure;Samples;Min_cycle;Max_cycle;Signal;HPM_P1;HPM_P2
2022/08/29 00:03:39;;;;;;;;;;;21.00;53.20;;;18.84;57.88;101474.53;12258162;19;19978;-86
2022/08/29 00:07:41;;;;;;;;;;;20.60;53.10;;;18.69;58.11;101460.69;12257829;19;19944;-87
2022/08/29 00:11:43;;;;;;;;;;;20.60;53.10;;;18.68;58.02;101479.31;12255790;19;19948;-87
2022/08/29 00:15:44;;;;;;;;;;;20.60;53.20;;;18.61;58.13;101468.38;12255809;19;19943;-86
2022/08/29 00:19:46;;;;;;;;;;;20.50;53.20;;;18.59;58.04;101480.88;12256165;19;19930;-86
2022/08/29 00:23:48;;;;;;;;;;;20.40;53.10;;;18.08;57.86;101408.03;12256394;19;19947;-87
2022/08/29 00:27:49;;;;;;;;;;;20.40;53.10;;;18.48;57.92;101486.97;12255538;19;19915;-87
2022/08/29 00:31:51;;;;;;;;;;;20.60;53.30;;;18.33;58.23;101472.28;12254858;19;19931;-86
2022/08/29 00:35:53;;;;;;;;;;;20.30;53.20;;;18.03;58.02;101433.97;12256405;19;20238;-86
2022/08/29 00:39:55;;;;;;;;;;;20.20;53.20;;;18.19;58.07;101459.28;12256097;19;19982;-86
2022/08/29 00:43:56;;;;;;;;;;;20.10;53.20;;;18.19;58.10;101478.59;12255057;19;19922;-87
2022/08/29 00:48:03;;;;;;;;;;;20.10;53.30;;;18.25;58.15;101487.88;12253879;19;19923;-87
2022/08/29 00:52:24;;;;;;;;;;;20.00;53.20;;;18.23;58.06;101485.38;12251875;19;19926;-87
2022/08/29 00:56:26;;;;;;;;;;;20.00;53.40;;;18.15;58.04;101474.53;12252342;19;19922;-87
2022/08/29 01:00:28;;;;;;;;;;;20.20;53.50;;;18.12;58.26;101472.97;12251903;19;19919;-87
2022/08/29 01:04:32;;;;;;;;;;;20.20;53.80;;;18.14;58.03;101476.31;12250404;19;19938;-87
2022/08/29 01:08:33;;;;;;;;;;;20.00;53.50;;;18.04;57.94;101470.03;12249910;19;19971;-88
2022/08/29 01:12:35;;;;;;;;;;;20.10;53.50;;;18.10;57.92;101481.97;12248654;19;19914;-86
2022/08/29 01:16:37;;;;;;;;;;;19.80;53.40;;;17.91;58.23;101461.34;12252751;19;19927;-86
2022/08/29 01:20:54;;;;;;;;;;;20.10;53.60;;;18.08;58.24;101497.91;12250854;19;19918;-86
2022/08/29 01:24:57;;;;;;;;;;;19.80;53.40;;;18.06;58.18;101494.53;12247916;19;20376;-85
2022/08/29 01:28:58;;;;;;;;;;;19.80;53.40;;;17.98;57.94;101493.44;12249319;19;19919;-86
2022/08/29 01:33:00;;;;;;;;;;;19.80;53.50;;;17.90;58.22;101486.94;12247655;19;20601;-86
2022/08/29 01:37:04;;;;;;;;;;;19.80;53.50;;;17.82;58.12;101481.38;12252253;19;19907;-87
2022/08/29 01:41:07;;;;;;;;;;;19.80;53.60;;;17.75;58.29;101474.81;12247598;19;19933;-87
2022/08/29 01:45:08;;;;;;;;;;;20.10;53.70;;;17.93;58.09;101512.28;12249357;19;19932;-86
2022/08/29 01:49:11;;;;;;;;;;;19.70;53.50;;;17.90;57.98;101515.13;12251136;19;19931;-86
2022/08/29 01:53:13;;;;;;;;;;;19.70;53.50;;;17.86;57.98;101505.75;12244818;19;20440;-88
2022/08/29 01:57:16;;;;;;;;;;;19.90;53.60;;;17.80;58.26;101503.56;12248356;19;19915;-87
2022/08/29 02:01:21;;;;;;;;;;;19.70;53.60;;;17.83;58.36;101508.63;12246727;19;19926;-86
2022/08/29 02:05:22;;;;;;;;;;;19.70;53.60;;;17.47;58.40;101446.91;12248159;19;19931;-87
2022/08/29 02:09:25;;;;;;;;;;;19.70;53.70;;;17.80;58.11;101495.66;12248398;19;19906;-86
2022/08/29 02:13:27;;;;;;;;;;;19.60;53.60;;;17.52;58.23;101454.50;12249814;19;19963;-86
2022/08/29 02:17:28;;;;;;;;;;;19.90;53.70;;;17.83;58.23;101498.06;12260880;19;19911;-87
2022/08/29 02:21:30;;;;;;;;;;;19.70;53.70;;;17.91;58.23;101511.56;12258242;19;19962;-87
2022/08/29 02:25:40;;;;;;;;;;;19.70;53.70;;;17.75;58.11;101485.38;12262153;19;19978;-86
2022/08/29 02:29:42;;;;;;;;;;;19.70;53.70;;;17.83;58.29;101500.72;12263024;19;19927;-86
2022/08/29 02:33:44;;;;;;;;;;;19.70;53.70;;;17.86;57.99;101513.69;12261623;19;19952;-86
2022/08/29 02:37:46;;;;;;;;;;;19.70;53.60;;;17.51;58.16;101445.75;12263103;19;19918;-86
2022/08/29 02:41:48;;;;;;;;;;;19.60;53.60;;;17.50;57.98;101451.13;12259316;19;19919;-86
2022/08/29 02:45:49;;;;;;;;;;;19.70;53.70;;;17.77;57.97;101493.19;12261413;19;19929;-86
2022/08/29 02:49:51;;;;;;;;;;;19.60;53.60;;;17.74;58.35;101493.41;12258199;19;19918;-86
2022/08/29 02:53:53;;;;;;;;;;;19.60;53.60;;;17.72;58.15;101503.25;12256643;19;19917;-87
2022/08/29 02:57:57;;;;;;;;;;;19.80;53.70;;;17.69;58.36;101497.25;12258980;19;19924;-85
2022/08/29 03:01:59;;;;;;;;;;;19.60;53.60;;;17.48;58.06;101469.75;12252724;19;19934;-85
2022/08/29 03:06:00;;;;;;;;;;;19.60;53.60;;;17.47;58.31;101481.25;12258713;19;20347;-88
2022/08/29 03:10:04;;;;;;;;;;;19.50;53.50;;;17.59;58.14;101511.22;12257147;19;19923;-86
2022/08/29 03:14:05;;;;;;;;;;;19.50;53.60;;;17.53;58.21;101503.75;12255415;19;19942;-86
2022/08/29 03:18:07;;;;;;;;;;;19.60;53.60;;;17.36;58.27;101481.19;12257784;19;20367;-87
2022/08/29 03:22:08;;;;;;;;;;;19.40;53.50;;;17.47;58.16;101497.09;12250778;19;20266;-87
2022/08/29 03:26:10;;;;;;;;;;;19.60;53.70;;;17.45;58.31;101502.50;12253021;19;19979;-87
2022/08/29 03:30:13;;;;;;;;;;;19.30;53.60;;;17.36;58.34;101497.03;12255853;19;19923;-87
2022/08/29 03:34:15;;;;;;;;;;;19.30;53.50;;;16.89;58.15;101409.72;12255000;19;20251;-87
2022/08/29 03:38:16;;;;;;;;;;;19.30;53.60;;;17.28;58.03;101479.09;12255325;19;19919;-87
2022/08/29 03:42:19;;;;;;;;;;;19.30;53.60;;;17.31;58.39;101483.31;12251524;19;19970;-87
2022/08/29 03:46:21;;;;;;;;;;;19.20;53.50;;;17.14;58.21;101472.16;12254842;19;19919;-87
2022/08/29 03:50:23;;;;;;;;;;;19.30;53.60;;;16.86;58.39;101432.84;12253938;19;19911;-87
2022/08/29 03:54:25;;;;;;;;;;;19.10;53.50;;;17.16;58.40;101496.66;12254925;19;19915;-87
2022/08/29 03:58:26;;;;;;;;;;;19.10;53.60;;;17.17;58.35;101505.41;12255397;19;19935;-87
2022/08/29 04:02:28;;;;;;;;;;;19.10;53.60;;;16.96;58.19;101471.66;12247945;19;19919;-87
2022/08/29 04:06:32;;;;;;;;;;;19.00;53.60;;;17.18;58.16;101512.38;12254723;19;19924;-87
2022/08/29 04:10:36;;;;;;;;;;;19.00;53.60;;;17.09;58.16;101505.94;12252079;19;19932;-87
2022/08/29 04:14:38;;;;;;;;;;;19.00;53.70;;;16.81;58.01;101456.91;12253520;19;19903;-87
2022/08/29 04:18:40;;;;;;;;;;;19.00;53.70;;;16.87;58.59;101467.03;12253933;19;19914;-87
2022/08/29 04:22:43;;;;;;;;;;;18.90;53.70;;;16.97;58.63;101477.78;12251074;19;19918;-87
2022/08/29 04:26:45;;;;;;;;;;;19.00;53.90;;;16.94;58.30;101491.19;12253755;19;19927;-88
2022/08/29 04:30:48;;;;;;;;;;;18.90;53.70;;;16.82;58.19;101477.03;12253730;19;19914;-87
2022/08/29 04:34:49;;;;;;;;;;;18.90;53.70;;;16.94;58.51;101509.66;12253838;19;19918;-86
2022/08/29 04:38:51;;;;;;;;;;;18.90;53.70;;;16.72;58.42;101474.19;12251139;19;19933;-88
2022/08/29 04:42:52;;;;;;;;;;;18.80;53.70;;;16.87;58.42;101501.31;12247969;19;19914;-89
2022/08/29 04:46:54;;;;;;;;;;;18.80;53.70;;;16.63;58.07;101469.53;12252478;19;19915;-88
2022/08/29 04:50:57;;;;;;;;;;;18.70;53.80;;;16.88;58.49;101518.84;12250216;19;19926;-86
2022/08/29 04:54:59;;;;;;;;;;;18.70;53.80;;;16.70;58.37;101496.34;12249193;19;19903;-87
2022/08/29 04:59:00;;;;;;;;;;;18.70;53.80;;;16.74;58.57;101511.88;12249739;19;20006;-89
2022/08/29 05:03:02;;;;;;;;;;;18.70;53.90;;;16.49;58.57;101488.09;12247981;19;19903;-88
2022/08/29 05:07:04;;;;;;;;;;;18.60;53.80;;;16.36;58.40;101470.50;12249604;19;20361;-88
2022/08/29 05:11:10;;;;;;;;;;;18.60;53.80;;;16.56;58.58;101508.69;12248613;19;19953;-88
2022/08/29 05:15:12;;;;;;;;;;;18.70;54.00;;;16.40;58.53;101478.19;12248482;19;20247;-88
2022/08/29 05:19:15;;;;;;;;;;;18.60;54.10;;;16.03;58.65;101420.03;12248464;19;19922;-87
2022/08/29 05:23:17;;;;;;;;;;;18.80;54.20;;;16.61;58.53;101513.66;12243920;19;19998;-87
2022/08/29 05:27:21;;;;;;;;;;;18.60;54.30;;;16.67;58.52;101507.94;12247134;19;19922;-88
2022/08/29 05:31:23;;;;;;;;;;;18.60;54.30;;;16.75;58.63;101521.44;12244875;19;19975;-87
2022/08/29 05:35:25;;;;;;;;;;;19.00;54.50;;;16.49;58.97;101480.19;12248913;19;19914;-86
2022/08/29 05:39:27;;;;;;;;;;;18.70;54.40;;;16.85;58.53;101541.94;12250902;19;19910;-87
2022/08/29 05:43:28;;;;;;;;;;;18.70;54.40;;;16.86;58.42;101541.00;12248637;19;19919;-87
2022/08/29 05:47:31;;;;;;;;;;;18.80;54.40;;;16.89;58.41;101543.44;12249387;19;20340;-88
2022/08/29 05:51:32;;;;;;;;;;;18.80;54.50;;;16.92;58.55;101537.94;12255564;19;19919;-87
2022/08/29 05:55:42;;;;;;;;;;;18.90;54.60;;;17.11;58.71;101558.63;12261154;19;19918;-88
2022/08/29 05:59:43;;;;;;;;;;;19.10;54.70;;;17.01;58.90;101537.28;12260881;19;20257;-88
2022/08/29 06:03:44;;;;;;;;;;;19.00;54.60;;;16.96;58.70;101535.00;12260558;19;19936;-89
2022/08/29 06:07:47;;;;;;;;;;;19.00;54.70;;;16.49;58.75;101462.56;12259087;19;20002;-88
2022/08/29 06:11:49;;;;;;;;;;;19.30;54.90;;;16.85;58.88;101511.16;12256989;19;20321;-89
2022/08/29 06:15:51;;;;;;;;;;;19.10;54.80;;;17.28;58.85;101565.34;12257541;19;19923;-88
2022/08/29 06:19:52;;;;;;;;;;;19.30;55.10;;;17.21;58.58;101547.31;12259197;19;19919;-89
2022/08/29 06:23:54;;;;;;;;;;;19.10;55.00;;;17.29;58.89;101541.50;12261381;19;19915;-88
2022/08/29 06:27:56;;;;;;;;;;;19.20;55.10;;;17.23;58.81;101521.66;12260524;19;19910;-87
2022/08/29 06:31:58;;;;;;;;;;;19.60;55.30;;;17.15;58.97;101499.41;12256039;19;19911;-87
2022/08/29 06:35:59;;;;;;;;;;;19.60;55.20;;;17.22;59.02;101496.19;12261538;19;20311;-87
2022/08/29 06:40:01;;;;;;;;;;;19.40;55.20;;;17.22;58.82;101467.16;12258649;19;19922;-89
2022/08/29 06:44:03;;;;;;;;;;;19.50;55.30;;;17.32;58.99;101472.66;12256496;19;19911;-87
2022/08/29 06:48:05;;;;;;;;;;;20.00;55.40;;;17.19;58.71;101443.63;12256528;19;20237;-88
2022/08/29 06:52:06;;;;;;;;;;;19.70;55.20;;;17.72;58.52;101519.94;12253892;19;19992;-89
2022/08/29 06:56:08;;;;;;;;;;;19.70;55.10;;;17.64;58.93;101499.38;12257140;19;19911;-89
2022/08/29 07:00:12;;;;;;;;;;;19.80;55.20;;;17.96;58.74;101530.56;12255592;19;19935;-87
2022/08/29 07:04:13;;;;;;;;;;;20.00;55.20;;;17.90;58.85;101512.50;12258654;19;19935;-89
2022/08/29 07:08:15;;;;;;;;;;;20.10;55.20;;;18.10;58.95;101524.25;12258015;19;19911;-89
2022/08/29 07:12:17;;;;;;;;;;;20.50;55.30;;;18.53;58.90;101587.16;12253620;19;19957;-89
2022/08/29 07:16:18;;;;;;;;;;;20.30;55.20;;;18.61;58.96;101595.38;12256556;19;19911;-88
2022/08/29 07:20:20;;;;;;;;;;;20.40;55.20;;;18.66;58.85;101595.88;12256016;19;19922;-88
2022/08/29 07:24:21;;;;;;;;;;;20.50;55.20;;;18.72;59.06;101597.19;12252431;19;19911;-87
2022/08/29 07:28:23;;;;;;;;;;;20.60;55.50;;;18.73;58.78;101591.78;12248524;19;19903;-88
2022/08/29 07:32:25;;;;;;;;;;;20.60;55.10;;;18.90;59.00;101610.84;12249510;19;19926;-88
2022/08/29 07:36:26;;;;;;;;;;;20.60;55.00;;;18.42;58.76;101532.41;12253159;19;19915;-87
2022/08/29 07:40:28;;;;;;;;;;;20.70;54.90;;;18.98;58.79;101619.91;12252279;19;19915;-89
2022/08/29 07:44:31;;;;;;;;;;;20.80;55.00;;;19.00;58.80;101623.25;12246494;19;19967;-89
2022/08/29 07:48:33;;;;;;;;;;;20.70;54.90;;;18.55;58.83;101543.75;12251168;19;19911;-90
2022/08/29 07:52:35;;;;;;;;;;;20.80;54.90;;;18.51;59.07;101539.66;12248268;19;20278;-87
2022/08/29 07:56:40;;;;;;;;;;;21.10;55.00;;;18.65;59.06;101559.75;12251934;19;19929;-90
2022/08/29 08:00:41;;;;;;;;;;;20.90;55.00;;;18.46;58.88;101518.00;12218020;19;20779;-89
2022/08/29 08:04:42;;;;;;;;;;;21.20;55.20;;;18.64;58.94;101546.66;12250576;19;19925;-88
2022/08/29 08:08:44;;;;;;;;;;;21.00;55.00;;;18.79;58.86;101577.25;12250782;19;19910;-89
2022/08/29 08:12:46;;;;;;;;;;;21.00;54.90;;;18.98;58.90;101596.09;12245058;19;19925;-89
2022/08/29 08:16:48;;;;;;;;;;;21.00;54.80;;;18.61;59.00;101542.44;12249797;19;19914;-88
2022/08/29 08:20:50;;;;;;;;;;;21.00;54.80;;;19.11;58.93;101611.84;12248587;19;19927;-89
2022/08/29 08:24:52;;;;;;;;;;;21.30;54.90;;;19.29;58.67;101644.03;12244721;19;19918;-89
2022/08/29 08:28:53;;;;;;;;;;;21.10;54.90;;;19.26;59.08;101644.25;12249080;19;19923;-87
2022/08/29 08:32:55;;;;;;;;;;;21.10;54.80;;;19.31;58.74;101650.06;12246756;19;19957;-89
2022/08/29 08:36:56;;;;;;;;;;;21.20;54.90;;;19.29;58.89;101643.19;12249321;19;19923;-87
2022/08/29 08:41:19;;;;;;;;;;;21.30;55.30;;;19.43;59.16;101661.50;12249347;19;19923;-89
2022/08/29 08:45:25;;;;;;;;;;;21.20;54.80;;;19.44;58.82;101661.38;12250277;19;19924;-89
2022/08/29 08:49:32;;;;;;;;;;;21.20;54.80;;;19.50;59.23;101661.88;12248000;19;19926;-86
2022/08/29 08:53:43;;;;;;;;;;;21.20;54.90;;;19.21;59.03;101598.75;12248223;19;19937;-89
2022/08/29 08:58:01;;;;;;;;;;;21.30;55.00;;;19.38;58.80;101608.84;12249029;19;20566;-86
2022/08/29 09:02:13;;;;;;;;;;;21.40;55.10;;;19.70;59.03;101642.63;12246338;19;20331;-88
2022/08/29 09:06:39;;;;;;;;;;;21.50;55.10;;;19.49;59.09;101597.41;12248449;19;19922;-89
2022/08/29 09:10:51;;;;;;;;;;;21.60;55.10;;;19.91;59.12;101665.75;12246629;19;20253;-88
2022/08/29 09:15:06;;;;;;;;;;;21.70;55.10;;;19.95;58.93;101668.00;12248356;19;19923;-89
2022/08/29 09:19:10;;;;;;;;;;;21.70;55.10;;;20.01;59.03;101666.66;12246776;19;19919;-88
2022/08/29 09:23:26;;;;;;;;;;;21.70;55.10;;;20.13;58.83;101657.75;12243329;19;19910;-88
2022/08/29 09:27:31;;;;;;;;;;;21.80;55.10;;;20.13;59.03;101648.94;12259666;19;20344;-88
2022/08/29 09:31:34;;;;;;;;;;;21.90;55.20;;;20.21;59.19;101647.34;12256984;19;19919;-88
2022/08/29 09:35:44;;;;;;;;;;;21.90;55.20;;;20.26;58.96;101639.03;12259738;19;20257;-88
2022/08/29 09:39:57;;;;;;;;;;;22.00;55.20;;;20.50;59.08;101652.94;12259057;19;19943;-87
2022/08/29 09:43:59;;;;;;;;;;;22.10;55.30;;;20.02;58.76;101555.19;12259294;19;19928;-88
2022/08/29 09:48:19;;;;;;;;;;;22.20;55.30;;;20.10;58.79;101546.63;12260411;19;19919;-86
2022/08/29 09:52:23;;;;;;;;;;;22.30;55.30;;;20.76;59.07;101636.66;12253995;19;19974;-88
2022/08/29 09:56:26;;;;;;;;;;;22.50;55.30;;;20.85;59.18;101648.34;12258562;19;19970;-87
2022/08/29 10:00:32;;;;;;;;;;;22.50;55.30;;;20.92;59.02;101641.53;12256150;19;19911;-88
2022/08/29 10:04:36;;;;;;;;;;;22.60;55.20;;;20.74;58.58;101606.78;12257086;19;19915;-89
2022/08/29 10:08:38;;;;;;;;;;;22.70;55.10;;;20.97;58.74;101642.00;12257730;19;19922;-88
2022/08/29 10:13:04;;;;;;;;;;;22.80;55.10;;;21.20;58.73;101662.13;12253942;19;19996;-88
2022/08/29 10:21:45;;;;;;;;;;;22.90;55.00;;;21.26;58.56;101659.94;12255843;19;19929;-87
2022/08/29 10:25:47;;;;;;;;;;;23.00;55.00;;;21.14;58.75;101641.41;12257258;19;19951;-87
2022/08/29 10:30:16;;;;;;;;;;;23.00;54.90;;;21.39;58.93;101668.56;12257580;19;20280;-88
2022/08/29 10:34:38;;;;;;;;;;;23.00;55.00;;;21.37;58.52;101662.50;12255541;19;19932;-87
2022/08/29 10:38:50;;;;;;;;;;;23.10;55.00;;;21.42;58.70;101661.16;12258610;19;19934;-87
2022/08/29 10:43:19;;;;;;;;;;;23.20;55.10;;;21.56;58.56;101665.28;12253082;19;19910;-88
2022/08/29 10:47:51;;;;;;;;;;;23.30;55.10;;;21.61;58.83;101659.56;12256638;19;19922;-88
2022/08/29 10:52:02;;;;;;;;;;;23.30;55.10;;;21.76;58.79;101670.66;12255094;19;19910;-87
2022/08/29 10:56:26;;;;;;;;;;;23.40;55.10;;;21.80;58.81;101674.75;12256479;19;19923;-87
2022/08/29 11:00:36;;;;;;;;;;;23.50;54.90;;;21.64;58.79;101668.13;12251082;19;19908;-86
2022/08/29 11:04:43;;;;;;;;;;;23.50;54.80;;;21.61;58.52;101655.09;12254270;19;19921;-87
2022/08/29 11:08:57;;;;;;;;;;;23.50;54.60;;;21.70;58.68;101672.03;12253222;19;19919;-87
2022/08/29 11:13:08;;;;;;;;;;;23.50;54.60;;;21.48;58.67;101638.53;12251147;19;19928;-88
2022/08/29 11:17:13;;;;;;;;;;;23.50;54.70;;;21.71;58.81;101670.22;12254536;19;19907;-86
2022/08/29 11:21:36;;;;;;;;;;;23.50;54.80;;;21.63;58.73;101653.16;12251416;19;19931;-89
2022/08/29 11:25:40;;;;;;;;;;;23.50;54.80;;;21.37;58.60;101598.72;12255134;19;19928;-88
2022/08/29 11:29:54;;;;;;;;;;;23.50;54.70;;;21.19;58.78;101563.97;12253580;19;19934;-87
2022/08/29 11:34:16;;;;;;;;;;;23.50;54.80;;;21.94;58.66;101668.22;12249349;19;20589;-86
2022/08/29 11:38:23;;;;;;;;;;;23.60;54.90;;;22.05;58.38;101668.09;12251383;19;19928;-88
2022/08/29 11:42:32;;;;;;;;;;;23.60;54.90;;;21.68;58.76;101577.44;12247057;19;19935;-87
2022/08/29 11:46:38;;;;;;;;;;;23.70;55.00;;;22.36;58.33;101654.72;12254762;19;19911;-86
2022/08/29 11:50:39;;;;;;;;;;;23.90;55.20;;;22.52;58.61;101647.03;12248468;19;20344;-87
2022/08/29 11:54:41;;;;;;;;;;;24.10;55.10;;;22.72;58.39;101667.34;12251656;19;19915;-88
2022/08/29 11:58:45;;;;;;;;;;;24.20;55.00;;;22.64;58.30;101640.59;12253680;19;19918;-89
2022/08/29 12:02:47;;;;;;;;;;;24.30;54.80;;;22.75;58.52;101647.59;12243646;19;19940;-90
2022/08/29 12:06:59;;;;;;;;;;;24.50;54.80;;;22.97;58.45;101667.78;12246112;19;19914;-88
2022/08/29 12:11:01;;;;;;;;;;;24.50;54.70;;;22.82;58.00;101630.06;12245837;19;19930;-91
2022/08/29 12:15:34;;;;;;;;;;;24.60;54.60;;;23.14;58.54;101661.72;12245424;19;19915;-88
2022/08/29 12:19:57;;;;;;;;;;;24.70;54.70;;;23.33;58.41;101663.50;12245369;19;19907;-89
2022/08/29 12:23:59;;;;;;;;;;;24.80;54.70;;;23.41;58.26;101649.44;12245465;19;19929;-90
2022/08/29 12:28:16;;;;;;;;;;;25.00;54.60;;;23.52;57.90;101649.25;12245233;19;19919;-90
2022/08/29 12:33:11;;;;;;;;;;;25.10;54.50;;;23.55;58.06;101653.47;12242286;19;19926;-89
2022/08/29 12:37:17;;;;;;;;;;;25.10;54.30;;;23.57;57.91;101651.47;12245781;19;19922;-87
2022/08/29 12:41:33;;;;;;;;;;;25.20;54.20;;;23.58;58.10;101647.84;12246354;19;19921;-86
2022/08/29 12:45:41;;;;;;;;;;;25.20;54.20;;;23.53;57.97;101636.75;12244906;19;20330;-87
2022/08/29 12:49:50;;;;;;;;;;;25.50;54.20;;;23.51;57.81;101636.91;12243966;19;19919;-86
2022/08/29 12:53:51;;;;;;;;;;;25.30;54.00;;;23.62;57.78;101655.38;12246736;19;19935;-88
2022/08/29 12:57:53;;;;;;;;;;;25.30;54.00;;;23.64;58.23;101647.25;12243384;19;19986;-87
2022/08/29 13:01:56;;;;;;;;;;;25.30;54.00;;;23.64;57.73;101644.56;12242067;19;19919;-87
2022/08/29 13:06:05;;;;;;;;;;;25.30;53.80;;;23.62;57.67;101638.53;12244544;19;19957;-87
2022/08/29 13:10:07;;;;;;;;;;;25.30;53.90;;;23.42;58.15;101598.63;12243768;19;19922;-86
2022/08/29 13:14:10;;;;;;;;;;;25.40;54.00;;;23.63;57.76;101630.41;12244106;19;19919;-88
2022/08/29 13:18:15;;;;;;;;;;;25.40;54.00;;;23.71;57.79;101629.69;12244185;19;20292;-86
2022/08/29 13:22:16;;;;;;;;;;;25.40;54.00;;;23.76;57.73;101616.75;12243607;19;19921;-87
2022/08/29 13:26:21;;;;;;;;;;;25.50;54.00;;;23.71;57.74;101616.38;12245104;19;19960;-86
2022/08/29 13:30:23;;;;;;;;;;;25.50;53.80;;;23.83;57.57;101635.66;12239407;19;19935;-87
2022/08/29 13:34:25;;;;;;;;;;;25.50;53.80;;;23.49;57.67;101574.03;12242132;19;19918;-87
2022/08/29 13:38:30;;;;;;;;;;;25.50;53.60;;;23.79;57.54;101636.94;12241764;19;20352;-87
2022/08/29 13:42:31;;;;;;;;;;;25.60;53.60;;;23.50;57.32;101581.06;12240610;19;20267;-87
2022/08/29 13:46:33;;;;;;;;;;;25.50;53.50;;;23.31;57.76;101550.84;12242950;19;19918;-87
2022/08/29 13:50:34;;;;;;;;;;;25.50;53.60;;;23.59;57.53;101580.16;12243023;19;20315;-87
2022/08/29 13:54:38;;;;;;;;;;;25.50;53.40;;;23.65;57.33;101582.22;12241154;19;19951;-86
2022/08/29 13:58:39;;;;;;;;;;;25.50;53.60;;;23.57;57.61;101558.13;12239103;19;19946;-86
2022/08/29 14:02:40;;;;;;;;;;;25.70;53.70;;;23.27;57.41;101496.16;12238571;19;19929;-86
2022/08/29 14:06:42;;;;;;;;;;;25.60;53.80;;;23.64;57.36;101546.72;12241601;19;19922;-87
2022/08/29 14:10:44;;;;;;;;;;;25.70;53.70;;;23.78;57.44;101550.75;12245521;19;19919;-87
2022/08/29 14:14:45;;;;;;;;;;;25.90;53.80;;;23.81;57.49;101546.94;12255332;19;19922;-87
2022/08/29 14:18:48;;;;;;;;;;;25.90;53.80;;;23.89;57.34;101544.34;12254353;19;19910;-86
2022/08/29 14:22:50;;;;;;;;;;;25.90;53.80;;;23.61;57.27;101487.53;12244397;19;19922;-86
2022/08/29 14:26:54;;;;;;;;;;;25.90;53.70;;;24.13;57.16;101558.91;12254124;19;20225;-85
2022/08/29 14:30:56;;;;;;;;;;;25.90;53.60;;;23.90;57.19;101514.03;12251495;19;19915;-86
2022/08/29 14:34:57;;;;;;;;;;;26.30;53.70;;;23.86;57.46;101493.97;12253051;19;19925;-87
2022/08/29 14:38:58;;;;;;;;;;;26.00;53.40;;;23.75;56.81;101473.69;12253328;19;19914;-87
2022/08/29 14:43:01;;;;;;;;;;;26.10;53.40;;;24.14;57.05;101534.75;12246327;19;20265;-86
2022/08/29 14:47:02;;;;;;;;;;;26.10;53.40;;;24.31;57.02;101548.25;12250873;19;20560;-89
2022/08/29 14:51:04;;;;;;;;;;;26.20;53.30;;;24.16;57.08;101516.75;12249047;19;19922;-90
2022/08/29 14:55:06;;;;;;;;;;;26.20;53.30;;;24.52;57.11;101556.78;12250945;19;19918;-89
2022/08/29 14:59:08;;;;;;;;;;;26.30;53.20;;;24.41;57.05;101533.81;12249114;19;19970;-89
2022/08/29 15:03:09;;;;;;;;;;;26.30;53.00;;;24.54;57.29;101552.09;12245553;19;19939;-88
2022/08/29 15:07:12;;;;;;;;;;;26.40;53.30;;;24.51;56.69;101539.06;12248274;19;20329;-90
2022/08/29 15:11:13;;;;;;;;;;;26.60;53.10;;;24.41;56.82;101517.78;12248435;19;19930;-86
2022/08/29 15:15:15;;;;;;;;;;;26.60;53.30;;;24.53;56.41;101518.38;12250461;19;19944;-87
2022/08/29 15:19:16;;;;;;;;;;;26.40;53.10;;;24.35;56.53;101485.50;12251771;19;19970;-88
2022/08/29 15:23:18;;;;;;;;;;;26.50;52.90;;;24.53;56.55;101513.03;12244390;19;19915;-87
2022/08/29 15:27:21;;;;;;;;;;;26.60;52.80;;;24.41;56.36;101485.75;12251921;19;20378;-87
2022/08/29 15:31:22;;;;;;;;;;;26.50;52.80;;;24.35;56.59;101467.66;12246587;19;19918;-87
2022/08/29 15:35:24;;;;;;;;;;;26.60;53.00;;;24.71;56.81;101519.19;12248486;19;19933;-88
2022/08/29 15:39:26;;;;;;;;;;;26.60;52.80;;;25.08;56.39;101571.47;12249281;19;19922;-86
2022/08/29 15:43:27;;;;;;;;;;;26.70;52.90;;;24.86;56.75;101531.94;12245566;19;19943;-86
2022/08/29 15:47:29;;;;;;;;;;;26.60;52.80;;;25.02;56.36;101555.25;12248757;19;19918;-87
2022/08/29 15:51:31;;;;;;;;;;;26.70;52.70;;;25.05;56.14;101553.09;12246665;19;20313;-87
2022/08/29 15:55:32;;;;;;;;;;;26.70;52.80;;;24.92;56.31;101517.94;12248250;19;20013;-87
2022/08/29 15:59:34;;;;;;;;;;;26.80;52.80;;;25.19;56.11;101569.56;12247130;19;19915;-87
2022/08/29 16:03:35;;;;;;;;;;;26.80;52.40;;;24.85;56.45;101500.88;12240931;19;19922;-88
2022/08/29 16:07:36;;;;;;;;;;;26.80;52.50;;;25.23;55.94;101547.69;12250312;19;19922;-87
2022/08/29 16:11:38;;;;;;;;;;;26.80;52.10;;;25.21;56.01;101549.69;12247183;19;19922;-87
2022/08/29 16:15:40;;;;;;;;;;;26.80;52.40;;;25.19;56.50;101532.13;12247910;19;19907;-86
2022/08/29 16:19:41;;;;;;;;;;;26.80;52.60;;;25.13;56.31;101515.69;12249571;19;19926;-86
2022/08/29 16:23:43;;;;;;;;;;;26.90;52.40;;;25.32;56.06;101554.75;12245602;19;19911;-86
2022/08/29 16:27:44;;;;;;;;;;;27.00;52.40;;;25.24;56.15;101545.84;12248069;19;19915;-86
2022/08/29 16:31:46;;;;;;;;;;;26.90;52.20;;;25.17;56.00;101554.53;12245891;19;19923;-86
2022/08/29 16:35:47;;;;;;;;;;;26.90;52.20;;;25.22;55.99;101553.19;12248656;19;19927;-87
2022/08/29 16:39:48;;;;;;;;;;;26.90;52.30;;;25.22;56.10;101561.22;12246901;19;19919;-87
2022/08/29 16:43:51;;;;;;;;;;;27.00;52.30;;;25.22;55.83;101569.22;12247429;19;20232;-86
2022/08/29 16:47:52;;;;;;;;;;;26.80;52.20;;;25.07;55.67;101551.09;12246992;19;19931;-88
2022/08/29 16:51:54;;;;;;;;;;;26.80;52.30;;;25.12;55.61;101558.66;12244598;19;19915;-88
2022/08/29 16:55:55;;;;;;;;;;;26.80;52.10;;;24.56;55.56;101471.84;12248249;19;20342;-85
2022/08/29 16:59:57;;;;;;;;;;;26.80;52.10;;;24.98;56.11;101552.06;12248555;19;19915;-86
2022/08/29 17:04:00;;;;;;;;;;;26.70;51.90;;;24.85;56.02;101546.31;12246480;19;19930;-86
2022/08/29 17:20:10;;;;;;;;;;;26.50;51.90;;;24.73;55.71;101549.25;12245973;19;19917;-86
2022/08/29 17:24:12;;;;;;;;;;;26.40;52.00;;;24.80;55.88;101564.66;12245780;19;19915;-86
2022/08/29 17:28:13;;;;;;;;;;;26.50;52.10;;;24.75;55.48;101567.78;12247671;19;19922;-88
2022/08/29 17:32:16;;;;;;;;;;;26.50;52.10;;;24.25;55.30;101497.16;12243757;19;19931;-87
2022/08/29 17:36:18;;;;;;;;;;;26.40;52.10;;;24.58;55.39;101560.66;12246097;19;19918;-86
2022/08/29 17:40:19;;;;;;;;;;;26.30;51.90;;;24.44;55.84;101540.69;12245485;19;19947;-86
2022/08/29 17:44:22;;;;;;;;;;;26.20;51.80;;;24.37;55.88;101543.09;12246154;19;19970;-86
2022/08/29 17:48:24;;;;;;;;;;;26.20;52.30;;;24.37;55.78;101553.78;12259439;19;19917;-86
2022/08/29 17:52:25;;;;;;;;;;;26.20;52.00;;;24.14;55.51;101520.56;12255290;19;19920;-86
2022/08/29 17:56:37;;;;;;;;;;;26.10;51.90;;;24.24;55.72;101553.34;12260336;19;19922;-86
2022/08/29 18:00:39;;;;;;;;;;;26.00;51.90;;;24.23;55.53;101559.69;12256698;19;20433;-86
2022/08/29 18:04:40;;;;;;;;;;;25.90;51.90;;;24.06;55.44;101556.88;12259408;19;19907;-87
2022/08/29 18:08:42;;;;;;;;;;;25.90;51.90;;;24.06;55.78;101572.00;12261186;19;19919;-87
2022/08/29 18:12:44;;;;;;;;;;;25.80;51.90;;;23.98;55.44;101571.94;12255441;19;19911;-87
2022/08/29 18:16:46;;;;;;;;;;;25.70;51.90;;;23.90;55.55;101574.53;12259631;19;20341;-86
2022/08/29 18:20:47;;;;;;;;;;;25.60;51.90;;;23.81;55.65;101581.63;12257623;19;19982;-86
2022/08/29 18:24:48;;;;;;;;;;;25.60;51.90;;;23.70;55.59;101589.78;12254971;19;19927;-87
2022/08/29 18:28:50;;;;;;;;;;;25.50;51.90;;;23.48;55.92;101567.03;12257013;19;19911;-86
2022/08/29 18:32:51;;;;;;;;;;;25.40;51.90;;;23.48;55.75;101588.38;12250907;19;19919;-86
2022/08/29 18:36:53;;;;;;;;;;;25.30;51.90;;;23.34;55.37;101576.38;12257588;19;19932;-86